sensor_id;sensor_type;location;lat;lon;timestamp;P1;durP1;ratioP1;P2;durP2;ratioP2
59338;SDS011;45117;50.960;5.500;2022-12-17T00:01:24;137.70;;;38.13;;
59338;SDS011;45117;50.960;5.500;2022-12-17T00:04:07;124.78;;;34.08;;
59338;SDS011;45117;50.960;5.500;2022-12-17T00:06:51;119.78;;;35.40;;
59338;SDS011;45117;50.960;5.500;2022-12-17T00:09:35;111.18;;;34.80;;
59338;SDS011;45117;50.960;5.500;2022-12-17T00:12:19;115.75;;;35.53;;
59338;SDS011;45117;50.960;5.500;2022-12-17T00:15:08;119.72;;;34.95;;
59338;SDS011;45117;50.960;5.500;2022-12-17T00:17:58;114.57;;;35.72;;
59338;SDS011;45117;50.960;5.500;2022-12-17T00:20:50;110.18;;;32.95;;
59338;SDS011;45117;50.960;5.500;2022-12-17T00:23:37;122.93;;;35.22;;
59338;SDS011;45117;50.960;5.500;2022-12-17T00:26:21;117.30;;;33.20;;
59338;SDS011;45117;50.960;5.500;2022-12-17T00:29:05;120.65;;;35.42;;
59338;SDS011;45117;50.960;5.500;2022-12-17T00:31:49;127.43;;;34.75;;
59338;SDS011;45117;50.960;5.500;2022-12-17T00:34:34;121.53;;;34.22;;
59338;SDS011;45117;50.960;5.500;2022-12-17T00:37:18;120.05;;;35.15;;
59338;SDS011;45117;50.960;5.500;2022-12-17T00:40:02;125.78;;;34.90;;
59338;SDS011;45117;50.960;5.500;2022-12-17T00:42:47;128.55;;;35.58;;
59338;SDS011;45117;50.960;5.500;2022-12-17T00:45:31;136.07;;;35.58;;
59338;SDS011;45117;50.960;5.500;2022-12-17T00:48:15;122.82;;;35.05;;
59338;SDS011;45117;50.960;5.500;2022-12-17T00:51:00;130.23;;;36.25;;
59338;SDS011;45117;50.960;5.500;2022-12-17T00:53:44;120.15;;;33.67;;
59338;SDS011;45117;50.960;5.500;2022-12-17T00:56:36;120.68;;;34.38;;
59338;SDS011;45117;50.960;5.500;2022-12-17T00:59:20;122.30;;;35.63;;
59338;SDS011;45117;50.960;5.500;2022-12-17T01:02:04;111.50;;;33.75;;
59338;SDS011;45117;50.960;5.500;2022-12-17T01:04:48;126.45;;;33.78;;
59338;SDS011;45117;50.960;5.500;2022-12-17T01:07:34;118.35;;;32.40;;
59338;SDS011;45117;50.960;5.500;2022-12-17T01:10:17;134.48;;;36.53;;
59338;SDS011;45117;50.960;5.500;2022-12-17T01:13:01;124.47;;;33.83;;
59338;SDS011;45117;50.960;5.500;2022-12-17T01:15:45;128.98;;;35.72;;
59338;SDS011;45117;50.960;5.500;2022-12-17T01:18:29;116.28;;;34.95;;
59338;SDS011;45117;50.960;5.500;2022-12-17T01:21:13;137.32;;;36.80;;
59338;SDS011;45117;50.960;5.500;2022-12-17T01:23:58;126.10;;;34.15;;
59338;SDS011;45117;50.960;5.500;2022-12-17T01:26:42;121.03;;;35.45;;
59338;SDS011;45117;50.960;5.500;2022-12-17T01:29:28;106.60;;;34.40;;
59338;SDS011;45117;50.960;5.500;2022-12-17T01:32:12;116.28;;;33.83;;
59338;SDS011;45117;50.960;5.500;2022-12-17T01:34:56;122.40;;;34.05;;
59338;SDS011;45117;50.960;5.500;2022-12-17T01:37:40;126.07;;;34.22;;
59338;SDS011;45117;50.960;5.500;2022-12-17T01:40:25;119.47;;;32.28;;
59338;SDS011;45117;50.960;5.500;2022-12-17T01:43:10;120.95;;;34.28;;
59338;SDS011;45117;50.960;5.500;2022-12-17T01:45:55;105.18;;;32.67;;
59338;SDS011;45117;50.960;5.500;2022-12-17T01:48:40;108.65;;;33.58;;
59338;SDS011;45117;50.960;5.500;2022-12-17T01:51:29;114.00;;;34.70;;
59338;SDS011;45117;50.960;5.500;2022-12-17T01:54:14;119.38;;;38.30;;
59338;SDS011;45117;50.960;5.500;2022-12-17T01:57:01;126.68;;;38.90;;
59338;SDS011;45117;50.960;5.500;2022-12-17T01:59:48;121.10;;;39.17;;
59338;SDS011;45117;50.960;5.500;2022-12-17T02:02:35;111.22;;;35.65;;
59338;SDS011;45117;50.960;5.500;2022-12-17T02:05:19;121.50;;;37.17;;
59338;SDS011;45117;50.960;5.500;2022-12-17T02:08:10;107.03;;;33.38;;
59338;SDS011;45117;50.960;5.500;2022-12-17T02:11:04;110.55;;;33.38;;
59338;SDS011;45117;50.960;5.500;2022-12-17T02:14:02;108.20;;;31.83;;
59338;SDS011;45117;50.960;5.500;2022-12-17T02:16:54;102.45;;;33.72;;
59338;SDS011;45117;50.960;5.500;2022-12-17T02:19:44;115.15;;;33.60;;
59338;SDS011;45117;50.960;5.500;2022-12-17T02:22:43;104.55;;;32.05;;
59338;SDS011;45117;50.960;5.500;2022-12-17T02:25:38;109.18;;;32.72;;
59338;SDS011;45117;50.960;5.500;2022-12-17T02:28:29;107.00;;;31.92;;
59338;SDS011;45117;50.960;5.500;2022-12-17T02:31:26;117.13;;;33.20;;
59338;SDS011;45117;50.960;5.500;2022-12-17T02:34:12;115.35;;;33.80;;
59338;SDS011;45117;50.960;5.500;2022-12-17T02:36:56;114.97;;;32.72;;
59338;SDS011;45117;50.960;5.500;2022-12-17T02:39:40;129.68;;;35.40;;
59338;SDS011;45117;50.960;5.500;2022-12-17T02:42:24;109.85;;;34.13;;
59338;SDS011;45117;50.960;5.500;2022-12-17T02:45:11;101.43;;;32.63;;
59338;SDS011;45117;50.960;5.500;2022-12-17T02:48:09;111.68;;;32.67;;
59338;SDS011;45117;50.960;5.500;2022-12-17T02:50:55;110.03;;;31.23;;
59338;SDS011;45117;50.960;5.500;2022-12-17T02:53:41;101.53;;;32.25;;
59338;SDS011;45117;50.960;5.500;2022-12-17T02:56:26;102.45;;;31.75;;
59338;SDS011;45117;50.960;5.500;2022-12-17T02:59:09;111.30;;;34.00;;
59338;SDS011;45117;50.960;5.500;2022-12-17T03:01:55;108.60;;;33.00;;
59338;SDS011;45117;50.960;5.500;2022-12-17T03:04:39;110.85;;;34.40;;
59338;SDS011;45117;50.960;5.500;2022-12-17T03:07:31;104.50;;;33.70;;
59338;SDS011;45117;50.960;5.500;2022-12-17T03:10:15;116.50;;;32.15;;
59338;SDS011;45117;50.960;5.500;2022-12-17T03:12:59;112.07;;;33.50;;
59338;SDS011;45117;50.960;5.500;2022-12-17T03:16:05;122.03;;;34.75;;
59338;SDS011;45117;50.960;5.500;2022-12-17T03:18:52;111.45;;;33.78;;
59338;SDS011;45117;50.960;5.500;2022-12-17T03:21:35;102.07;;;33.35;;
59338;SDS011;45117;50.960;5.500;2022-12-17T03:24:20;104.85;;;33.70;;
59338;SDS011;45117;50.960;5.500;2022-12-17T03:27:04;98.80;;;32.50;;
59338;SDS011;45117;50.960;5.500;2022-12-17T03:29:47;111.38;;;34.13;;
59338;SDS011;45117;50.960;5.500;2022-12-17T03:32:31;104.53;;;33.15;;
59338;SDS011;45117;50.960;5.500;2022-12-17T03:35:17;99.05;;;32.63;;
59338;SDS011;45117;50.960;5.500;2022-12-17T03:38:00;96.68;;;32.80;;
59338;SDS011;45117;50.960;5.500;2022-12-17T03:40:49;90.72;;;30.63;;
59338;SDS011;45117;50.960;5.500;2022-12-17T03:43:33;107.97;;;33.28;;
59338;SDS011;45117;50.960;5.500;2022-12-17T03:46:17;92.38;;;30.42;;
59338;SDS011;45117;50.960;5.500;2022-12-17T03:49:01;100.70;;;31.92;;
59338;SDS011;45117;50.960;5.500;2022-12-17T03:51:46;100.07;;;32.58;;
59338;SDS011;45117;50.960;5.500;2022-12-17T03:54:30;91.43;;;29.00;;
59338;SDS011;45117;50.960;5.500;2022-12-17T03:57:14;96.13;;;32.13;;
59338;SDS011;45117;50.960;5.500;2022-12-17T03:59:58;99.30;;;32.35;;
59338;SDS011;45117;50.960;5.500;2022-12-17T04:02:42;90.55;;;31.45;;
59338;SDS011;45117;50.960;5.500;2022-12-17T04:05:27;91.20;;;29.33;;
59338;SDS011;45117;50.960;5.500;2022-12-17T04:08:14;90.72;;;32.75;;
59338;SDS011;45117;50.960;5.500;2022-12-17T04:10:58;86.22;;;29.85;;
59338;SDS011;45117;50.960;5.500;2022-12-17T04:13:42;103.45;;;32.45;;
59338;SDS011;45117;50.960;5.500;2022-12-17T04:16:27;93.45;;;31.58;;
59338;SDS011;45117;50.960;5.500;2022-12-17T04:19:11;85.50;;;29.63;;
59338;SDS011;45117;50.960;5.500;2022-12-17T04:21:55;93.60;;;32.33;;
59338;SDS011;45117;50.960;5.500;2022-12-17T04:24:41;89.53;;;31.00;;
59338;SDS011;45117;50.960;5.500;2022-12-17T04:27:25;100.18;;;32.67;;
59338;SDS011;45117;50.960;5.500;2022-12-17T04:30:09;92.55;;;30.33;;
59338;SDS011;45117;50.960;5.500;2022-12-17T04:32:53;88.30;;;29.20;;
59338;SDS011;45117;50.960;5.500;2022-12-17T04:35:37;89.18;;;30.88;;
59338;SDS011;45117;50.960;5.500;2022-12-17T04:38:21;93.75;;;29.98;;
59338;SDS011;45117;50.960;5.500;2022-12-17T04:41:06;89.35;;;29.70;;
59338;SDS011;45117;50.960;5.500;2022-12-17T04:43:50;101.82;;;33.17;;
59338;SDS011;45117;50.960;5.500;2022-12-17T04:46:34;97.72;;;31.90;;
59338;SDS011;45117;50.960;5.500;2022-12-17T04:49:18;92.60;;;30.63;;
59338;SDS011;45117;50.960;5.500;2022-12-17T04:52:02;100.00;;;31.73;;
59338;SDS011;45117;50.960;5.500;2022-12-17T04:54:46;98.95;;;32.83;;
59338;SDS011;45117;50.960;5.500;2022-12-17T04:57:31;94.10;;;31.60;;
59338;SDS011;45117;50.960;5.500;2022-12-17T05:00:15;95.90;;;31.67;;
59338;SDS011;45117;50.960;5.500;2022-12-17T05:03:02;93.50;;;30.80;;
59338;SDS011;45117;50.960;5.500;2022-12-17T05:05:47;91.47;;;30.88;;
59338;SDS011;45117;50.960;5.500;2022-12-17T05:08:31;99.35;;;31.73;;
59338;SDS011;45117;50.960;5.500;2022-12-17T05:11:15;93.97;;;32.17;;
59338;SDS011;45117;50.960;5.500;2022-12-17T05:14:15;92.35;;;30.42;;
59338;SDS011;45117;50.960;5.500;2022-12-17T05:16:59;89.32;;;31.02;;
59338;SDS011;45117;50.960;5.500;2022-12-17T05:19:43;96.35;;;32.00;;
59338;SDS011;45117;50.960;5.500;2022-12-17T05:22:27;90.60;;;28.63;;
59338;SDS011;45117;50.960;5.500;2022-12-17T05:25:11;93.50;;;31.92;;
59338;SDS011;45117;50.960;5.500;2022-12-17T05:27:55;94.85;;;31.30;;
59338;SDS011;45117;50.960;5.500;2022-12-17T05:30:40;95.25;;;32.60;;
59338;SDS011;45117;50.960;5.500;2022-12-17T05:33:24;93.25;;;31.30;;
59338;SDS011;45117;50.960;5.500;2022-12-17T05:36:08;95.47;;;31.98;;
59338;SDS011;45117;50.960;5.500;2022-12-17T05:38:52;99.32;;;32.55;;
59338;SDS011;45117;50.960;5.500;2022-12-17T05:41:36;86.18;;;29.88;;
59338;SDS011;45117;50.960;5.500;2022-12-17T05:44:20;90.78;;;30.52;;
59338;SDS011;45117;50.960;5.500;2022-12-17T05:47:05;84.82;;;31.40;;
59338;SDS011;45117;50.960;5.500;2022-12-17T05:49:49;88.80;;;30.38;;
59338;SDS011;45117;50.960;5.500;2022-12-17T05:52:33;95.68;;;31.80;;
59338;SDS011;45117;50.960;5.500;2022-12-17T05:55:17;90.00;;;30.85;;
59338;SDS011;45117;50.960;5.500;2022-12-17T05:58:01;88.30;;;29.63;;
59338;SDS011;45117;50.960;5.500;2022-12-17T06:00:46;79.00;;;28.85;;
59338;SDS011;45117;50.960;5.500;2022-12-17T06:03:32;88.78;;;29.15;;
59338;SDS011;45117;50.960;5.500;2022-12-17T06:06:16;81.13;;;28.60;;
59338;SDS011;45117;50.960;5.500;2022-12-17T06:08:59;93.38;;;30.35;;
59338;SDS011;45117;50.960;5.500;2022-12-17T06:11:44;89.70;;;29.00;;
59338;SDS011;45117;50.960;5.500;2022-12-17T06:14:28;91.03;;;28.40;;
59338;SDS011;45117;50.960;5.500;2022-12-17T06:17:11;88.43;;;30.67;;
59338;SDS011;45117;50.960;5.500;2022-12-17T06:19:57;87.70;;;28.83;;
59338;SDS011;45117;50.960;5.500;2022-12-17T06:22:41;84.05;;;29.20;;
59338;SDS011;45117;50.960;5.500;2022-12-17T06:25:24;83.90;;;28.08;;
59338;SDS011;45117;50.960;5.500;2022-12-17T06:28:17;85.82;;;28.90;;
59338;SDS011;45117;50.960;5.500;2022-12-17T06:31:15;83.70;;;28.85;;
59338;SDS011;45117;50.960;5.500;2022-12-17T06:33:59;88.07;;;29.88;;
59338;SDS011;45117;50.960;5.500;2022-12-17T06:36:47;83.32;;;28.83;;
59338;SDS011;45117;50.960;5.500;2022-12-17T06:39:31;85.40;;;28.60;;
59338;SDS011;45117;50.960;5.500;2022-12-17T06:42:15;83.57;;;27.10;;
59338;SDS011;45117;50.960;5.500;2022-12-17T06:44:59;89.50;;;30.33;;
59338;SDS011;45117;50.960;5.500;2022-12-17T06:47:43;89.47;;;29.02;;
59338;SDS011;45117;50.960;5.500;2022-12-17T06:50:41;89.47;;;28.35;;
59338;SDS011;45117;50.960;5.500;2022-12-17T06:53:27;80.50;;;27.80;;
59338;SDS011;45117;50.960;5.500;2022-12-17T06:56:11;87.35;;;29.77;;
59338;SDS011;45117;50.960;5.500;2022-12-17T06:58:55;89.20;;;30.27;;
59338;SDS011;45117;50.960;5.500;2022-12-17T07:01:39;80.43;;;27.55;;
59338;SDS011;45117;50.960;5.500;2022-12-17T07:04:23;89.15;;;29.85;;
59338;SDS011;45117;50.960;5.500;2022-12-17T07:07:07;90.38;;;28.70;;
59338;SDS011;45117;50.960;5.500;2022-12-17T07:09:52;103.05;;;31.80;;
59338;SDS011;45117;50.960;5.500;2022-12-17T07:12:36;94.95;;;30.00;;
59338;SDS011;45117;50.960;5.500;2022-12-17T07:15:20;97.95;;;30.98;;
59338;SDS011;45117;50.960;5.500;2022-12-17T07:18:04;105.03;;;30.50;;
59338;SDS011;45117;50.960;5.500;2022-12-17T07:20:51;98.05;;;30.45;;
59338;SDS011;45117;50.960;5.500;2022-12-17T07:23:44;103.82;;;30.15;;
59338;SDS011;45117;50.960;5.500;2022-12-17T07:26:29;102.07;;;30.30;;
59338;SDS011;45117;50.960;5.500;2022-12-17T07:29:13;109.75;;;30.23;;
59338;SDS011;45117;50.960;5.500;2022-12-17T07:31:57;102.80;;;30.95;;
59338;SDS011;45117;50.960;5.500;2022-12-17T07:34:41;112.40;;;32.25;;
59338;SDS011;45117;50.960;5.500;2022-12-17T07:37:25;101.20;;;31.60;;
59338;SDS011;45117;50.960;5.500;2022-12-17T07:40:09;105.25;;;30.08;;
59338;SDS011;45117;50.960;5.500;2022-12-17T07:42:55;104.32;;;30.50;;
59338;SDS011;45117;50.960;5.500;2022-12-17T07:45:39;106.63;;;30.98;;
59338;SDS011;45117;50.960;5.500;2022-12-17T07:48:23;110.47;;;31.27;;
59338;SDS011;45117;50.960;5.500;2022-12-17T07:51:07;105.78;;;30.20;;
59338;SDS011;45117;50.960;5.500;2022-12-17T07:53:51;108.45;;;31.73;;
59338;SDS011;45117;50.960;5.500;2022-12-17T07:56:35;110.90;;;30.13;;
59338;SDS011;45117;50.960;5.500;2022-12-17T07:59:32;104.60;;;31.27;;
59338;SDS011;45117;50.960;5.500;2022-12-17T08:02:16;108.68;;;31.00;;
59338;SDS011;45117;50.960;5.500;2022-12-17T08:05:00;114.28;;;32.60;;
59338;SDS011;45117;50.960;5.500;2022-12-17T08:07:53;106.82;;;31.35;;
59338;SDS011;45117;50.960;5.500;2022-12-17T08:10:37;94.95;;;29.65;;
59338;SDS011;45117;50.960;5.500;2022-12-17T08:13:21;113.47;;;33.05;;
59338;SDS011;45117;50.960;5.500;2022-12-17T08:16:06;121.15;;;31.27;;
59338;SDS011;45117;50.960;5.500;2022-12-17T08:18:50;108.47;;;31.15;;
59338;SDS011;45117;50.960;5.500;2022-12-17T08:21:34;100.93;;;27.77;;
59338;SDS011;45117;50.960;5.500;2022-12-17T08:24:18;114.53;;;31.67;;
59338;SDS011;45117;50.960;5.500;2022-12-17T08:27:02;114.88;;;30.55;;
59338;SDS011;45117;50.960;5.500;2022-12-17T08:29:46;103.70;;;29.70;;
59338;SDS011;45117;50.960;5.500;2022-12-17T08:32:32;103.20;;;29.33;;
59338;SDS011;45117;50.960;5.500;2022-12-17T08:35:15;125.75;;;33.05;;
59338;SDS011;45117;50.960;5.500;2022-12-17T08:38:00;113.75;;;30.10;;
59338;SDS011;45117;50.960;5.500;2022-12-17T08:40:44;116.45;;;30.30;;
59338;SDS011;45117;50.960;5.500;2022-12-17T08:43:29;118.22;;;30.55;;
59338;SDS011;45117;50.960;5.500;2022-12-17T08:46:13;106.45;;;29.48;;
59338;SDS011;45117;50.960;5.500;2022-12-17T08:48:58;118.63;;;30.27;;
59338;SDS011;45117;50.960;5.500;2022-12-17T08:51:42;106.55;;;28.25;;
59338;SDS011;45117;50.960;5.500;2022-12-17T08:54:26;110.57;;;28.80;;
59338;SDS011;45117;50.960;5.500;2022-12-17T08:57:07;117.75;;;30.85;;
59338;SDS011;45117;50.960;5.500;2022-12-17T08:59:51;110.00;;;29.60;;
59338;SDS011;45117;50.960;5.500;2022-12-17T09:02:35;116.93;;;30.33;;
59338;SDS011;45117;50.960;5.500;2022-12-17T09:05:20;110.75;;;29.52;;
59338;SDS011;45117;50.960;5.500;2022-12-17T09:08:05;113.75;;;28.90;;
59338;SDS011;45117;50.960;5.500;2022-12-17T09:10:50;112.65;;;28.58;;
59338;SDS011;45117;50.960;5.500;2022-12-17T09:13:34;120.50;;;30.05;;
59338;SDS011;45117;50.960;5.500;2022-12-17T09:16:30;116.97;;;31.50;;
59338;SDS011;45117;50.960;5.500;2022-12-17T09:19:14;117.32;;;29.90;;
59338;SDS011;45117;50.960;5.500;2022-12-17T09:22:00;107.70;;;27.52;;
59338;SDS011;45117;50.960;5.500;2022-12-17T09:24:44;114.93;;;28.98;;
59338;SDS011;45117;50.960;5.500;2022-12-17T09:27:28;103.75;;;27.73;;
59338;SDS011;45117;50.960;5.500;2022-12-17T09:30:12;101.40;;;27.77;;
59338;SDS011;45117;50.960;5.500;2022-12-17T09:32:56;110.40;;;28.20;;
59338;SDS011;45117;50.960;5.500;2022-12-17T09:35:40;111.68;;;29.33;;
59338;SDS011;45117;50.960;5.500;2022-12-17T09:38:25;106.53;;;28.75;;
59338;SDS011;45117;50.960;5.500;2022-12-17T09:41:12;113.68;;;29.83;;
59338;SDS011;45117;50.960;5.500;2022-12-17T09:44:03;121.65;;;30.48;;
59338;SDS011;45117;50.960;5.500;2022-12-17T09:46:51;107.88;;;29.20;;
59338;SDS011;45117;50.960;5.500;2022-12-17T09:49:41;132.77;;;30.27;;
59338;SDS011;45117;50.960;5.500;2022-12-17T09:52:26;109.22;;;29.10;;
59338;SDS011;45117;50.960;5.500;2022-12-17T09:55:18;107.03;;;29.42;;
59338;SDS011;45117;50.960;5.500;2022-12-17T09:58:04;114.75;;;30.35;;
59338;SDS011;45117;50.960;5.500;2022-12-17T10:00:49;116.45;;;29.08;;
59338;SDS011;45117;50.960;5.500;2022-12-17T10:03:36;114.07;;;30.25;;
59338;SDS011;45117;50.960;5.500;2022-12-17T10:06:40;116.25;;;28.80;;
59338;SDS011;45117;50.960;5.500;2022-12-17T10:09:24;97.40;;;29.02;;
59338;SDS011;45117;50.960;5.500;2022-12-17T10:12:18;112.60;;;30.33;;
59338;SDS011;45117;50.960;5.500;2022-12-17T10:15:04;97.03;;;28.23;;
59338;SDS011;45117;50.960;5.500;2022-12-17T10:17:50;94.63;;;25.92;;
59338;SDS011;45117;50.960;5.500;2022-12-17T10:20:35;90.65;;;26.67;;
59338;SDS011;45117;50.960;5.500;2022-12-17T10:23:22;92.10;;;25.98;;
59338;SDS011;45117;50.960;5.500;2022-12-17T10:26:07;101.45;;;27.92;;
59338;SDS011;45117;50.960;5.500;2022-12-17T10:29:00;104.78;;;29.55;;
59338;SDS011;45117;50.960;5.500;2022-12-17T10:31:45;100.75;;;28.27;;
59338;SDS011;45117;50.960;5.500;2022-12-17T10:34:33;94.05;;;27.42;;
59338;SDS011;45117;50.960;5.500;2022-12-17T10:37:19;92.22;;;26.27;;
59338;SDS011;45117;50.960;5.500;2022-12-17T10:40:09;93.50;;;26.77;;
59338;SDS011;45117;50.960;5.500;2022-12-17T10:43:22;91.45;;;27.35;;
59338;SDS011;45117;50.960;5.500;2022-12-17T10:46:09;89.03;;;27.33;;
59338;SDS011;45117;50.960;5.500;2022-12-17T10:49:12;93.95;;;27.65;;
59338;SDS011;45117;50.960;5.500;2022-12-17T10:51:58;92.13;;;27.77;;
59338;SDS011;45117;50.960;5.500;2022-12-17T10:54:54;92.18;;;28.52;;
59338;SDS011;45117;50.960;5.500;2022-12-17T10:57:41;97.28;;;29.05;;
59338;SDS011;45117;50.960;5.500;2022-12-17T11:00:26;97.40;;;28.80;;
59338;SDS011;45117;50.960;5.500;2022-12-17T11:03:24;103.25;;;30.45;;
59338;SDS011;45117;50.960;5.500;2022-12-17T11:06:11;97.07;;;29.75;;
59338;SDS011;45117;50.960;5.500;2022-12-17T11:08:57;91.68;;;27.65;;
59338;SDS011;45117;50.960;5.500;2022-12-17T11:11:44;103.00;;;28.42;;
59338;SDS011;45117;50.960;5.500;2022-12-17T11:14:29;94.63;;;27.55;;
59338;SDS011;45117;50.960;5.500;2022-12-17T11:17:17;89.22;;;25.80;;
59338;SDS011;45117;50.960;5.500;2022-12-17T11:20:05;89.28;;;26.13;;
59338;SDS011;45117;50.960;5.500;2022-12-17T11:22:53;84.18;;;24.33;;
59338;SDS011;45117;50.960;5.500;2022-12-17T11:25:46;80.22;;;24.63;;
59338;SDS011;45117;50.960;5.500;2022-12-17T11:28:36;81.90;;;25.40;;
59338;SDS011;45117;50.960;5.500;2022-12-17T11:31:26;95.15;;;27.85;;
59338;SDS011;45117;50.960;5.500;2022-12-17T11:34:22;89.15;;;27.92;;
59338;SDS011;45117;50.960;5.500;2022-12-17T11:37:16;74.85;;;24.48;;
59338;SDS011;45117;50.960;5.500;2022-12-17T11:40:07;77.20;;;24.60;;
59338;SDS011;45117;50.960;5.500;2022-12-17T11:43:04;78.90;;;25.35;;
59338;SDS011;45117;50.960;5.500;2022-12-17T11:45:58;84.65;;;24.92;;
59338;SDS011;45117;50.960;5.500;2022-12-17T11:48:46;73.43;;;24.95;;
59338;SDS011;45117;50.960;5.500;2022-12-17T11:51:33;82.70;;;26.73;;
59338;SDS011;45117;50.960;5.500;2022-12-17T11:54:24;71.28;;;24.63;;
59338;SDS011;45117;50.960;5.500;2022-12-17T11:57:19;76.75;;;26.33;;
59338;SDS011;45117;50.960;5.500;2022-12-17T12:00:12;80.95;;;25.48;;
59338;SDS011;45117;50.960;5.500;2022-12-17T12:03:05;77.95;;;24.08;;
59338;SDS011;45117;50.960;5.500;2022-12-17T12:06:02;70.65;;;23.85;;
59338;SDS011;45117;50.960;5.500;2022-12-17T12:09:11;81.47;;;26.05;;
59338;SDS011;45117;50.960;5.500;2022-12-17T12:12:02;78.85;;;27.30;;
59338;SDS011;45117;50.960;5.500;2022-12-17T12:14:52;81.72;;;27.90;;
59338;SDS011;45117;50.960;5.500;2022-12-17T12:17:40;82.25;;;26.20;;
59338;SDS011;45117;50.960;5.500;2022-12-17T12:20:35;72.80;;;24.70;;
59338;SDS011;45117;50.960;5.500;2022-12-17T12:23:31;76.03;;;25.55;;
59338;SDS011;45117;50.960;5.500;2022-12-17T12:26:28;77.40;;;25.35;;
59338;SDS011;45117;50.960;5.500;2022-12-17T12:29:26;77.40;;;25.38;;
59338;SDS011;45117;50.960;5.500;2022-12-17T12:32:20;83.28;;;27.05;;
59338;SDS011;45117;50.960;5.500;2022-12-17T12:35:11;78.15;;;26.95;;
59338;SDS011;45117;50.960;5.500;2022-12-17T12:37:59;82.93;;;26.67;;
59338;SDS011;45117;50.960;5.500;2022-12-17T12:40:45;85.05;;;27.00;;
59338;SDS011;45117;50.960;5.500;2022-12-17T12:43:35;82.93;;;26.88;;
59338;SDS011;45117;50.960;5.500;2022-12-17T12:46:27;82.75;;;28.75;;
59338;SDS011;45117;50.960;5.500;2022-12-17T12:49:18;77.03;;;24.90;;
59338;SDS011;45117;50.960;5.500;2022-12-17T12:52:04;77.47;;;26.90;;
59338;SDS011;45117;50.960;5.500;2022-12-17T12:54:50;85.88;;;27.23;;
59338;SDS011;45117;50.960;5.500;2022-12-17T12:57:36;85.18;;;26.90;;
59338;SDS011;45117;50.960;5.500;2022-12-17T13:00:22;86.70;;;27.95;;
59338;SDS011;45117;50.960;5.500;2022-12-17T13:03:15;79.82;;;26.20;;
59338;SDS011;45117;50.960;5.500;2022-12-17T13:06:03;82.45;;;27.50;;
59338;SDS011;45117;50.960;5.500;2022-12-17T13:08:30;89.97;;;28.98;;
59338;SDS011;45117;50.960;5.500;2022-12-17T13:10:56;82.00;;;27.67;;
59338;SDS011;45117;50.960;5.500;2022-12-17T13:13:39;85.47;;;27.35;;
59338;SDS011;45117;50.960;5.500;2022-12-17T13:16:22;87.43;;;29.48;;
59338;SDS011;45117;50.960;5.500;2022-12-17T13:19:02;82.38;;;28.00;;
59338;SDS011;45117;50.960;5.500;2022-12-17T13:21:30;96.00;;;31.02;;
59338;SDS011;45117;50.960;5.500;2022-12-17T13:23:56;100.43;;;31.83;;
59338;SDS011;45117;50.960;5.500;2022-12-17T13:26:28;101.50;;;31.52;;
59338;SDS011;45117;50.960;5.500;2022-12-17T13:29:00;96.32;;;31.60;;
59338;SDS011;45117;50.960;5.500;2022-12-17T13:31:29;87.60;;;26.80;;
59338;SDS011;45117;50.960;5.500;2022-12-17T13:34:08;97.78;;;32.17;;
59338;SDS011;45117;50.960;5.500;2022-12-17T13:36:42;81.70;;;28.52;;
59338;SDS011;45117;50.960;5.500;2022-12-17T13:39:19;103.80;;;32.67;;
59338;SDS011;45117;50.960;5.500;2022-12-17T13:41:54;99.70;;;32.70;;
59338;SDS011;45117;50.960;5.500;2022-12-17T13:44:21;99.97;;;32.10;;
59338;SDS011;45117;50.960;5.500;2022-12-17T13:46:50;90.75;;;30.45;;
59338;SDS011;45117;50.960;5.500;2022-12-17T13:49:20;102.43;;;32.97;;
59338;SDS011;45117;50.960;5.500;2022-12-17T13:51:58;102.10;;;33.00;;
59338;SDS011;45117;50.960;5.500;2022-12-17T13:54:26;102.78;;;32.20;;
59338;SDS011;45117;50.960;5.500;2022-12-17T13:56:52;118.43;;;34.65;;
59338;SDS011;45117;50.960;5.500;2022-12-17T13:59:20;115.80;;;34.55;;
59338;SDS011;45117;50.960;5.500;2022-12-17T14:01:48;98.18;;;32.40;;
59338;SDS011;45117;50.960;5.500;2022-12-17T14:04:20;97.85;;;31.85;;
59338;SDS011;45117;50.960;5.500;2022-12-17T14:06:49;103.70;;;33.35;;
59338;SDS011;45117;50.960;5.500;2022-12-17T14:09:17;113.25;;;34.13;;
59338;SDS011;45117;50.960;5.500;2022-12-17T14:11:46;104.13;;;31.83;;
59338;SDS011;45117;50.960;5.500;2022-12-17T14:14:31;114.85;;;33.05;;
59338;SDS011;45117;50.960;5.500;2022-12-17T14:16:59;104.68;;;32.38;;
59338;SDS011;45117;50.960;5.500;2022-12-17T14:19:27;108.45;;;32.80;;
59338;SDS011;45117;50.960;5.500;2022-12-17T14:21:55;106.60;;;31.40;;
59338;SDS011;45117;50.960;5.500;2022-12-17T14:24:23;122.68;;;35.65;;
59338;SDS011;45117;50.960;5.500;2022-12-17T14:26:54;117.50;;;34.70;;
59338;SDS011;45117;50.960;5.500;2022-12-17T14:29:23;116.65;;;32.67;;
59338;SDS011;45117;50.960;5.500;2022-12-17T14:31:51;106.70;;;31.80;;
59338;SDS011;45117;50.960;5.500;2022-12-17T14:34:19;113.35;;;33.95;;
59338;SDS011;45117;50.960;5.500;2022-12-17T14:36:51;116.55;;;34.88;;
59338;SDS011;45117;50.960;5.500;2022-12-17T14:39:20;105.05;;;30.98;;
59338;SDS011;45117;50.960;5.500;2022-12-17T14:41:49;119.13;;;34.92;;
59338;SDS011;45117;50.960;5.500;2022-12-17T14:44:33;109.00;;;32.38;;
59338;SDS011;45117;50.960;5.500;2022-12-17T14:47:06;110.60;;;34.15;;
59338;SDS011;45117;50.960;5.500;2022-12-17T14:49:46;119.65;;;34.40;;
59338;SDS011;45117;50.960;5.500;2022-12-17T14:52:20;104.55;;;32.35;;
59338;SDS011;45117;50.960;5.500;2022-12-17T14:54:51;110.10;;;33.47;;
59338;SDS011;45117;50.960;5.500;2022-12-17T14:57:18;109.78;;;33.97;;
59338;SDS011;45117;50.960;5.500;2022-12-17T14:59:46;119.65;;;34.10;;
59338;SDS011;45117;50.960;5.500;2022-12-17T15:02:17;118.20;;;33.85;;
59338;SDS011;45117;50.960;5.500;2022-12-17T15:04:47;105.53;;;32.00;;
59338;SDS011;45117;50.960;5.500;2022-12-17T15:07:16;116.95;;;33.28;;
59338;SDS011;45117;50.960;5.500;2022-12-17T15:09:48;103.50;;;32.28;;
59338;SDS011;45117;50.960;5.500;2022-12-17T15:12:16;111.05;;;31.40;;
59338;SDS011;45117;50.960;5.500;2022-12-17T15:14:43;110.72;;;32.17;;
59338;SDS011;45117;50.960;5.500;2022-12-17T15:17:10;114.75;;;32.40;;
59338;SDS011;45117;50.960;5.500;2022-12-17T15:19:37;110.53;;;32.05;;
59338;SDS011;45117;50.960;5.500;2022-12-17T15:22:03;104.13;;;30.83;;
59338;SDS011;45117;50.960;5.500;2022-12-17T15:24:31;106.38;;;31.20;;
59338;SDS011;45117;50.960;5.500;2022-12-17T15:26:58;107.97;;;30.50;;
59338;SDS011;45117;50.960;5.500;2022-12-17T15:29:24;102.03;;;30.88;;
59338;SDS011;45117;50.960;5.500;2022-12-17T15:31:51;112.97;;;32.13;;
59338;SDS011;45117;50.960;5.500;2022-12-17T15:34:17;111.38;;;33.28;;
59338;SDS011;45117;50.960;5.500;2022-12-17T15:36:43;118.53;;;34.13;;
59338;SDS011;45117;50.960;5.500;2022-12-17T15:39:10;107.55;;;30.58;;
59338;SDS011;45117;50.960;5.500;2022-12-17T15:41:38;118.38;;;33.15;;
59338;SDS011;45117;50.960;5.500;2022-12-17T15:44:22;107.85;;;31.58;;
59338;SDS011;45117;50.960;5.500;2022-12-17T15:46:48;123.47;;;33.25;;
59338;SDS011;45117;50.960;5.500;2022-12-17T15:49:15;104.28;;;32.15;;